sensor_id;sensor_type;location;lat;lon;timestamp;P1;durP1;ratioP1;P2;durP2;ratioP2
37785;SDS011;23625;48.784;9.336;2024-03-29T00:01:16;2.90;;;1.13;;
37785;SDS011;23625;48.784;9.336;2024-03-29T00:03:42;2.00;;;0.80;;
37785;SDS011;23625;48.784;9.336;2024-03-29T00:06:08;1.80;;;0.80;;
37785;SDS011;23625;48.784;9.336;2024-03-29T00:08:33;2.35;;;0.60;;
37785;SDS011;23625;48.784;9.336;2024-03-29T00:10:59;3.65;;;0.75;;
37785;SDS011;23625;48.784;9.336;2024-03-29T00:13:25;1.30;;;0.55;;
37785;SDS011;23625;48.784;9.336;2024-03-29T00:15:50;1.35;;;0.70;;
37785;SDS011;23625;48.784;9.336;2024-03-29T00:18:16;4.60;;;1.00;;
37785;SDS011;23625;48.784;9.336;2024-03-29T00:20:42;2.45;;;0.70;;
37785;SDS011;23625;48.784;9.336;2024-03-29T00:23:07;1.58;;;0.60;;
37785;SDS011;23625;48.784;9.336;2024-03-29T00:25:33;1.35;;;0.65;;
37785;SDS011;23625;48.784;9.336;2024-03-29T00:27:58;5.25;;;0.43;;
37785;SDS011;23625;48.784;9.336;2024-03-29T00:30:25;3.83;;;0.70;;
37785;SDS011;23625;48.784;9.336;2024-03-29T00:32:51;3.55;;;0.57;;
37785;SDS011;23625;48.784;9.336;2024-03-29T00:35:16;1.77;;;0.60;;
37785;SDS011;23625;48.784;9.336;2024-03-29T00:37:42;1.60;;;0.68;;
37785;SDS011;23625;48.784;9.336;2024-03-29T00:40:07;1.92;;;0.88;;
37785;SDS011;23625;48.784;9.336;2024-03-29T00:42:33;3.10;;;0.60;;
37785;SDS011;23625;48.784;9.336;2024-03-29T00:44:59;1.45;;;0.45;;
37785;SDS011;23625;48.784;9.336;2024-03-29T00:47:25;2.47;;;0.68;;
37785;SDS011;23625;48.784;9.336;2024-03-29T00:49:50;1.98;;;0.57;;
37785;SDS011;23625;48.784;9.336;2024-03-29T00:52:16;2.25;;;0.70;;
37785;SDS011;23625;48.784;9.336;2024-03-29T00:54:41;2.30;;;0.52;;
37785;SDS011;23625;48.784;9.336;2024-03-29T00:57:07;5.40;;;0.68;;
37785;SDS011;23625;48.784;9.336;2024-03-29T00:59:37;4.80;;;0.90;;
37785;SDS011;23625;48.784;9.336;2024-03-29T01:02:03;1.08;;;0.55;;
37785;SDS011;23625;48.784;9.336;2024-03-29T01:04:28;0.93;;;0.52;;
37785;SDS011;23625;48.784;9.336;2024-03-29T01:06:54;4.13;;;0.70;;
37785;SDS011;23625;48.784;9.336;2024-03-29T01:09:21;0.93;;;0.50;;
37785;SDS011;23625;48.784;9.336;2024-03-29T01:11:46;1.65;;;0.65;;
37785;SDS011;23625;48.784;9.336;2024-03-29T01:14:12;1.02;;;0.70;;
37785;SDS011;23625;48.784;9.336;2024-03-29T01:16:37;2.58;;;0.60;;
37785;SDS011;23625;48.784;9.336;2024-03-29T01:19:03;1.25;;;0.63;;
37785;SDS011;23625;48.784;9.336;2024-03-29T01:21:30;4.63;;;1.45;;
37785;SDS011;23625;48.784;9.336;2024-03-29T01:23:56;1.17;;;0.50;;
37785;SDS011;23625;48.784;9.336;2024-03-29T01:26:21;1.85;;;0.60;;
37785;SDS011;23625;48.784;9.336;2024-03-29T01:28:47;3.72;;;0.60;;
37785;SDS011;23625;48.784;9.336;2024-03-29T01:31:12;2.30;;;0.70;;
37785;SDS011;23625;48.784;9.336;2024-03-29T01:33:38;3.78;;;0.40;;
37785;SDS011;23625;48.784;9.336;2024-03-29T01:36:06;1.33;;;0.57;;
37785;SDS011;23625;48.784;9.336;2024-03-29T01:38:32;1.38;;;0.55;;
37785;SDS011;23625;48.784;9.336;2024-03-29T01:40:57;3.63;;;0.50;;
37785;SDS011;23625;48.784;9.336;2024-03-29T01:43:23;1.00;;;0.32;;
37785;SDS011;23625;48.784;9.336;2024-03-29T01:45:50;0.80;;;0.40;;
37785;SDS011;23625;48.784;9.336;2024-03-29T01:48:18;2.65;;;0.60;;
37785;SDS011;23625;48.784;9.336;2024-03-29T01:50:45;0.93;;;0.70;;
37785;SDS011;23625;48.784;9.336;2024-03-29T01:53:12;1.77;;;0.70;;
37785;SDS011;23625;48.784;9.336;2024-03-29T01:55:39;5.07;;;0.85;;
37785;SDS011;23625;48.784;9.336;2024-03-29T01:58:06;1.33;;;0.45;;
37785;SDS011;23625;48.784;9.336;2024-03-29T02:00:34;0.57;;;0.40;;
37785;SDS011;23625;48.784;9.336;2024-03-29T02:03:03;4.30;;;0.47;;
37785;SDS011;23625;48.784;9.336;2024-03-29T02:05:34;0.45;;;0.45;;
37785;SDS011;23625;48.784;9.336;2024-03-29T02:08:01;5.30;;;0.47;;
37785;SDS011;23625;48.784;9.336;2024-03-29T02:10:28;1.10;;;0.40;;
37785;SDS011;23625;48.784;9.336;2024-03-29T02:12:54;2.05;;;0.60;;
37785;SDS011;23625;48.784;9.336;2024-03-29T02:15:19;1.05;;;0.40;;
37785;SDS011;23625;48.784;9.336;2024-03-29T02:17:45;1.77;;;0.55;;
37785;SDS011;23625;48.784;9.336;2024-03-29T02:20:11;0.38;;;0.30;;
37785;SDS011;23625;48.784;9.336;2024-03-29T02:22:41;0.75;;;0.32;;
37785;SDS011;23625;48.784;9.336;2024-03-29T02:25:16;1.00;;;0.30;;
37785;SDS011;23625;48.784;9.336;2024-03-29T02:27:42;0.63;;;0.30;;
37785;SDS011;23625;48.784;9.336;2024-03-29T02:30:08;1.30;;;0.28;;
37785;SDS011;23625;48.784;9.336;2024-03-29T02:32:33;2.78;;;0.40;;
37785;SDS011;23625;48.784;9.336;2024-03-29T02:34:59;0.57;;;0.38;;
37785;SDS011;23625;48.784;9.336;2024-03-29T02:37:25;0.73;;;0.40;;
37785;SDS011;23625;48.784;9.336;2024-03-29T02:39:50;0.85;;;0.40;;
37785;SDS011;23625;48.784;9.336;2024-03-29T02:42:16;1.23;;;0.45;;
37785;SDS011;23625;48.784;9.336;2024-03-29T02:44:42;2.45;;;0.40;;
37785;SDS011;23625;48.784;9.336;2024-03-29T02:47:07;1.02;;;0.55;;
37785;SDS011;23625;48.784;9.336;2024-03-29T02:49:33;0.77;;;0.47;;
37785;SDS011;23625;48.784;9.336;2024-03-29T02:51:58;1.15;;;0.43;;
37785;SDS011;23625;48.784;9.336;2024-03-29T02:54:24;3.33;;;0.50;;
37785;SDS011;23625;48.784;9.336;2024-03-29T02:56:52;2.75;;;0.40;;
37785;SDS011;23625;48.784;9.336;2024-03-29T02:59:18;0.93;;;0.60;;
37785;SDS011;23625;48.784;9.336;2024-03-29T03:01:43;1.27;;;0.50;;
37785;SDS011;23625;48.784;9.336;2024-03-29T03:04:09;1.35;;;0.43;;
37785;SDS011;23625;48.784;9.336;2024-03-29T03:06:34;1.02;;;0.30;;
37785;SDS011;23625;48.784;9.336;2024-03-29T03:09:00;2.38;;;0.50;;
37785;SDS011;23625;48.784;9.336;2024-03-29T03:11:45;1.25;;;0.40;;
37785;SDS011;23625;48.784;9.336;2024-03-29T03:14:10;1.00;;;0.47;;
37785;SDS011;23625;48.784;9.336;2024-03-29T03:16:36;2.42;;;0.43;;
37785;SDS011;23625;48.784;9.336;2024-03-29T03:19:01;3.20;;;0.38;;
37785;SDS011;23625;48.784;9.336;2024-03-29T03:21:27;0.68;;;0.32;;
37785;SDS011;23625;48.784;9.336;2024-03-29T03:23:53;0.43;;;0.40;;
37785;SDS011;23625;48.784;9.336;2024-03-29T03:26:19;2.55;;;0.60;;
37785;SDS011;23625;48.784;9.336;2024-03-29T03:28:44;0.52;;;0.40;;
37785;SDS011;23625;48.784;9.336;2024-03-29T03:31:10;0.50;;;0.30;;
37785;SDS011;23625;48.784;9.336;2024-03-29T03:33:35;0.47;;;0.35;;
37785;SDS011;23625;48.784;9.336;2024-03-29T03:36:01;1.38;;;0.43;;
37785;SDS011;23625;48.784;9.336;2024-03-29T03:38:27;0.98;;;0.40;;
37785;SDS011;23625;48.784;9.336;2024-03-29T03:40:53;1.80;;;0.60;;
37785;SDS011;23625;48.784;9.336;2024-03-29T03:43:19;1.00;;;0.40;;
37785;SDS011;23625;48.784;9.336;2024-03-29T03:45:44;1.35;;;0.45;;
37785;SDS011;23625;48.784;9.336;2024-03-29T03:48:10;2.28;;;0.30;;
37785;SDS011;23625;48.784;9.336;2024-03-29T03:50:39;2.15;;;0.82;;
37785;SDS011;23625;48.784;9.336;2024-03-29T03:53:06;0.85;;;0.40;;
37785;SDS011;23625;48.784;9.336;2024-03-29T03:55:35;0.38;;;0.35;;
37785;SDS011;23625;48.784;9.336;2024-03-29T03:58:01;0.85;;;0.50;;
37785;SDS011;23625;48.784;9.336;2024-03-29T04:00:28;0.35;;;0.30;;
37785;SDS011;23625;48.784;9.336;2024-03-29T04:02:53;2.05;;;0.50;;
37785;SDS011;23625;48.784;9.336;2024-03-29T04:05:19;1.10;;;0.20;;
37785;SDS011;23625;48.784;9.336;2024-03-29T04:07:45;0.47;;;0.45;;
37785;SDS011;23625;48.784;9.336;2024-03-29T04:10:11;1.33;;;0.50;;
37785;SDS011;23625;48.784;9.336;2024-03-29T04:12:37;1.13;;;0.40;;
37785;SDS011;23625;48.784;9.336;2024-03-29T04:15:03;1.30;;;0.45;;
37785;SDS011;23625;48.784;9.336;2024-03-29T04:17:30;0.50;;;0.40;;
37785;SDS011;23625;48.784;9.336;2024-03-29T04:19:56;0.55;;;0.30;;
37785;SDS011;23625;48.784;9.336;2024-03-29T04:22:22;1.95;;;0.55;;
37785;SDS011;23625;48.784;9.336;2024-03-29T04:24:48;2.25;;;0.47;;
37785;SDS011;23625;48.784;9.336;2024-03-29T04:27:14;1.35;;;0.40;;
37785;SDS011;23625;48.784;9.336;2024-03-29T04:29:39;0.40;;;0.30;;
37785;SDS011;23625;48.784;9.336;2024-03-29T04:32:05;3.35;;;0.47;;
37785;SDS011;23625;48.784;9.336;2024-03-29T04:34:31;2.40;;;0.50;;
37785;SDS011;23625;48.784;9.336;2024-03-29T04:36:56;0.75;;;0.40;;
37785;SDS011;23625;48.784;9.336;2024-03-29T04:39:22;0.90;;;0.47;;
37785;SDS011;23625;48.784;9.336;2024-03-29T04:41:48;3.17;;;0.45;;
37785;SDS011;23625;48.784;9.336;2024-03-29T04:44:22;0.77;;;0.40;;
37785;SDS011;23625;48.784;9.336;2024-03-29T04:46:49;1.60;;;0.30;;
37785;SDS011;23625;48.784;9.336;2024-03-29T04:49:15;1.95;;;0.50;;
37785;SDS011;23625;48.784;9.336;2024-03-29T04:51:47;0.85;;;0.43;;
37785;SDS011;23625;48.784;9.336;2024-03-29T04:54:14;1.13;;;0.40;;
37785;SDS011;23625;48.784;9.336;2024-03-29T04:56:41;1.63;;;0.32;;
37785;SDS011;23625;48.784;9.336;2024-03-29T04:59:06;2.28;;;0.65;;
37785;SDS011;23625;48.784;9.336;2024-03-29T05:01:32;3.78;;;0.45;;
37785;SDS011;23625;48.784;9.336;2024-03-29T05:04:00;2.20;;;0.30;;
37785;SDS011;23625;48.784;9.336;2024-03-29T05:06:26;0.80;;;0.30;;
37785;SDS011;23625;48.784;9.336;2024-03-29T05:08:51;1.15;;;0.40;;
37785;SDS011;23625;48.784;9.336;2024-03-29T05:11:17;1.55;;;0.32;;
37785;SDS011;23625;48.784;9.336;2024-03-29T05:13:44;0.85;;;0.32;;
37785;SDS011;23625;48.784;9.336;2024-03-29T05:16:10;2.55;;;0.73;;
37785;SDS011;23625;48.784;9.336;2024-03-29T05:18:35;2.78;;;0.60;;
37785;SDS011;23625;48.784;9.336;2024-03-29T05:21:01;1.52;;;0.50;;
37785;SDS011;23625;48.784;9.336;2024-03-29T05:23:27;0.47;;;0.47;;
37785;SDS011;23625;48.784;9.336;2024-03-29T05:25:52;0.57;;;0.30;;
37785;SDS011;23625;48.784;9.336;2024-03-29T05:28:18;3.40;;;1.83;;
37785;SDS011;23625;48.784;9.336;2024-03-29T05:30:44;4.03;;;0.88;;
37785;SDS011;23625;48.784;9.336;2024-03-29T05:33:10;1.17;;;0.88;;
37785;SDS011;23625;48.784;9.336;2024-03-29T05:35:35;0.93;;;0.63;;
37785;SDS011;23625;48.784;9.336;2024-03-29T05:38:01;0.93;;;0.40;;
37785;SDS011;23625;48.784;9.336;2024-03-29T05:40:27;1.95;;;0.75;;
37785;SDS011;23625;48.784;9.336;2024-03-29T05:42:53;2.47;;;0.77;;
37785;SDS011;23625;48.784;9.336;2024-03-29T05:45:29;2.88;;;0.40;;
37785;SDS011;23625;48.784;9.336;2024-03-29T05:47:56;1.77;;;0.47;;
37785;SDS011;23625;48.784;9.336;2024-03-29T05:50:23;2.85;;;0.40;;
37785;SDS011;23625;48.784;9.336;2024-03-29T05:52:50;2.55;;;0.40;;
37785;SDS011;23625;48.784;9.336;2024-03-29T05:55:16;1.83;;;1.20;;
37785;SDS011;23625;48.784;9.336;2024-03-29T05:57:43;1.20;;;0.95;;
37785;SDS011;23625;48.784;9.336;2024-03-29T06:00:10;2.17;;;0.30;;
37785;SDS011;23625;48.784;9.336;2024-03-29T06:02:38;2.22;;;0.40;;
37785;SDS011;23625;48.784;9.336;2024-03-29T06:05:04;4.65;;;1.30;;
37785;SDS011;23625;48.784;9.336;2024-03-29T06:07:30;5.45;;;1.95;;
37785;SDS011;23625;48.784;9.336;2024-03-29T06:09:58;6.00;;;2.83;;
37785;SDS011;23625;48.784;9.336;2024-03-29T06:12:25;6.60;;;3.03;;
37785;SDS011;23625;48.784;9.336;2024-03-29T06:14:51;1.75;;;0.40;;
37785;SDS011;23625;48.784;9.336;2024-03-29T06:17:35;0.45;;;0.25;;
37785;SDS011;23625;48.784;9.336;2024-03-29T06:20:02;1.60;;;0.40;;
37785;SDS011;23625;48.784;9.336;2024-03-29T06:22:29;0.25;;;0.25;;
37785;SDS011;23625;48.784;9.336;2024-03-29T06:24:55;0.95;;;0.30;;
37785;SDS011;23625;48.784;9.336;2024-03-29T06:27:29;0.40;;;0.38;;
37785;SDS011;23625;48.784;9.336;2024-03-29T06:29:59;1.13;;;0.68;;
37785;SDS011;23625;48.784;9.336;2024-03-29T06:32:25;3.05;;;0.28;;
37785;SDS011;23625;48.784;9.336;2024-03-29T06:34:50;1.60;;;0.20;;
37785;SDS011;23625;48.784;9.336;2024-03-29T06:37:16;2.38;;;0.30;;
37785;SDS011;23625;48.784;9.336;2024-03-29T06:39:41;0.40;;;0.30;;
37785;SDS011;23625;48.784;9.336;2024-03-29T06:42:08;1.65;;;0.20;;
37785;SDS011;23625;48.784;9.336;2024-03-29T06:44:34;1.50;;;0.32;;
37785;SDS011;23625;48.784;9.336;2024-03-29T06:47:01;1.42;;;0.20;;
37785;SDS011;23625;48.784;9.336;2024-03-29T06:49:27;0.70;;;0.43;;
37785;SDS011;23625;48.784;9.336;2024-03-29T06:51:53;3.45;;;0.70;;
37785;SDS011;23625;48.784;9.336;2024-03-29T06:54:24;5.95;;;1.75;;
37785;SDS011;23625;48.784;9.336;2024-03-29T06:56:51;6.20;;;3.30;;
37785;SDS011;23625;48.784;9.336;2024-03-29T06:59:18;11.35;;;4.18;;
37785;SDS011;23625;48.784;9.336;2024-03-29T07:01:44;7.60;;;3.88;;
37785;SDS011;23625;48.784;9.336;2024-03-29T07:04:10;7.30;;;3.65;;
37785;SDS011;23625;48.784;9.336;2024-03-29T07:06:35;5.90;;;3.13;;
37785;SDS011;23625;48.784;9.336;2024-03-29T07:09:03;7.50;;;2.97;;
37785;SDS011;23625;48.784;9.336;2024-03-29T07:11:29;6.13;;;2.38;;
37785;SDS011;23625;48.784;9.336;2024-03-29T07:13:54;5.65;;;2.60;;
37785;SDS011;23625;48.784;9.336;2024-03-29T07:16:20;4.70;;;2.60;;
37785;SDS011;23625;48.784;9.336;2024-03-29T07:18:46;3.85;;;2.35;;
37785;SDS011;23625;48.784;9.336;2024-03-29T07:21:11;4.43;;;1.85;;
37785;SDS011;23625;48.784;9.336;2024-03-29T07:23:37;2.00;;;0.93;;
37785;SDS011;23625;48.784;9.336;2024-03-29T07:26:03;1.33;;;0.57;;
37785;SDS011;23625;48.784;9.336;2024-03-29T07:28:30;3.25;;;0.90;;
37785;SDS011;23625;48.784;9.336;2024-03-29T07:30:56;1.58;;;0.65;;
37785;SDS011;23625;48.784;9.336;2024-03-29T07:33:23;1.25;;;0.63;;
37785;SDS011;23625;48.784;9.336;2024-03-29T07:35:54;2.30;;;1.17;;
37785;SDS011;23625;48.784;9.336;2024-03-29T07:38:21;2.90;;;0.85;;
37785;SDS011;23625;48.784;9.336;2024-03-29T07:40:48;3.95;;;1.50;;
37785;SDS011;23625;48.784;9.336;2024-03-29T07:43:15;2.88;;;1.17;;
37785;SDS011;23625;48.784;9.336;2024-03-29T07:45:41;2.88;;;1.35;;
37785;SDS011;23625;48.784;9.336;2024-03-29T07:48:10;2.97;;;1.52;;
37785;SDS011;23625;48.784;9.336;2024-03-29T07:50:38;4.03;;;1.50;;
37785;SDS011;23625;48.784;9.336;2024-03-29T07:53:04;3.85;;;1.63;;
37785;SDS011;23625;48.784;9.336;2024-03-29T07:55:30;3.58;;;1.50;;
37785;SDS011;23625;48.784;9.336;2024-03-29T07:57:55;2.97;;;1.42;;
37785;SDS011;23625;48.784;9.336;2024-03-29T08:00:21;4.53;;;1.05;;
37785;SDS011;23625;48.784;9.336;2024-03-29T08:02:47;4.30;;;1.23;;
37785;SDS011;23625;48.784;9.336;2024-03-29T08:05:14;3.42;;;1.45;;
37785;SDS011;23625;48.784;9.336;2024-03-29T08:07:40;2.58;;;0.55;;
37785;SDS011;23625;48.784;9.336;2024-03-29T08:10:05;0.70;;;0.60;;
37785;SDS011;23625;48.784;9.336;2024-03-29T08:12:32;1.95;;;0.70;;
37785;SDS011;23625;48.784;9.336;2024-03-29T08:14:58;2.65;;;0.40;;
37785;SDS011;23625;48.784;9.336;2024-03-29T08:17:23;0.85;;;0.50;;
37785;SDS011;23625;48.784;9.336;2024-03-29T08:19:50;5.35;;;0.57;;
37785;SDS011;23625;48.784;9.336;2024-03-29T08:22:15;2.17;;;0.70;;
37785;SDS011;23625;48.784;9.336;2024-03-29T08:24:41;3.25;;;1.25;;
37785;SDS011;23625;48.784;9.336;2024-03-29T08:27:07;1.42;;;0.80;;
37785;SDS011;23625;48.784;9.336;2024-03-29T08:29:32;3.00;;;1.00;;
37785;SDS011;23625;48.784;9.336;2024-03-29T08:31:58;2.47;;;1.20;;
37785;SDS011;23625;48.784;9.336;2024-03-29T08:34:23;3.80;;;1.52;;
37785;SDS011;23625;48.784;9.336;2024-03-29T08:36:49;2.03;;;1.13;;
37785;SDS011;23625;48.784;9.336;2024-03-29T08:39:18;3.58;;;0.93;;
37785;SDS011;23625;48.784;9.336;2024-03-29T08:41:44;3.88;;;1.45;;
37785;SDS011;23625;48.784;9.336;2024-03-29T08:44:09;3.45;;;1.00;;
37785;SDS011;23625;48.784;9.336;2024-03-29T08:46:36;2.25;;;0.90;;
37785;SDS011;23625;48.784;9.336;2024-03-29T08:49:02;3.45;;;0.95;;
37785;SDS011;23625;48.784;9.336;2024-03-29T08:51:27;3.03;;;0.98;;
37785;SDS011;23625;48.784;9.336;2024-03-29T08:53:54;3.67;;;0.98;;
37785;SDS011;23625;48.784;9.336;2024-03-29T08:56:20;6.03;;;1.10;;
37785;SDS011;23625;48.784;9.336;2024-03-29T08:58:45;6.95;;;2.35;;
37785;SDS011;23625;48.784;9.336;2024-03-29T09:01:12;2.33;;;1.20;;
37785;SDS011;23625;48.784;9.336;2024-03-29T09:03:39;2.88;;;1.15;;
37785;SDS011;23625;48.784;9.336;2024-03-29T09:06:05;2.25;;;1.00;;
37785;SDS011;23625;48.784;9.336;2024-03-29T09:08:30;4.57;;;0.93;;
37785;SDS011;23625;48.784;9.336;2024-03-29T09:10:56;1.23;;;0.90;;
37785;SDS011;23625;48.784;9.336;2024-03-29T09:13:21;1.63;;;0.80;;
37785;SDS011;23625;48.784;9.336;2024-03-29T09:15:47;4.53;;;1.58;;
37785;SDS011;23625;48.784;9.336;2024-03-29T09:18:14;3.50;;;1.38;;
37785;SDS011;23625;48.784;9.336;2024-03-29T09:20:44;5.78;;;2.50;;
37785;SDS011;23625;48.784;9.336;2024-03-29T09:23:10;6.38;;;3.05;;
37785;SDS011;23625;48.784;9.336;2024-03-29T09:25:40;5.28;;;2.55;;
37785;SDS011;23625;48.784;9.336;2024-03-29T09:28:06;5.68;;;2.25;;
37785;SDS011;23625;48.784;9.336;2024-03-29T09:30:31;5.07;;;2.10;;
37785;SDS011;23625;48.784;9.336;2024-03-29T09:32:57;7.65;;;3.47;;
37785;SDS011;23625;48.784;9.336;2024-03-29T09:35:23;15.90;;;8.55;;
37785;SDS011;23625;48.784;9.336;2024-03-29T09:37:49;7.10;;;2.55;;
37785;SDS011;23625;48.784;9.336;2024-03-29T09:40:15;5.30;;;2.42;;
37785;SDS011;23625;48.784;9.336;2024-03-29T09:42:41;5.05;;;3.25;;
37785;SDS011;23625;48.784;9.336;2024-03-29T09:45:08;7.13;;;2.38;;
37785;SDS011;23625;48.784;9.336;2024-03-29T09:47:36;3.22;;;1.30;;
37785;SDS011;23625;48.784;9.336;2024-03-29T09:50:03;4.10;;;1.60;;
37785;SDS011;23625;48.784;9.336;2024-03-29T09:52:31;15.38;;;6.05;;
37785;SDS011;23625;48.784;9.336;2024-03-29T09:54:58;19.27;;;6.65;;
37785;SDS011;23625;48.784;9.336;2024-03-29T09:57:26;11.43;;;5.40;;
37785;SDS011;23625;48.784;9.336;2024-03-29T09:59:55;14.85;;;7.15;;
37785;SDS011;23625;48.784;9.336;2024-03-29T10:02:21;7.38;;;3.78;;
37785;SDS011;23625;48.784;9.336;2024-03-29T10:04:53;5.63;;;2.80;;
37785;SDS011;23625;48.784;9.336;2024-03-29T10:07:22;7.43;;;3.28;;
37785;SDS011;23625;48.784;9.336;2024-03-29T10:09:48;5.25;;;2.45;;
37785;SDS011;23625;48.784;9.336;2024-03-29T10:12:16;6.10;;;2.55;;
37785;SDS011;23625;48.784;9.336;2024-03-29T10:14:45;5.85;;;2.58;;
37785;SDS011;23625;48.784;9.336;2024-03-29T10:17:15;8.48;;;3.22;;
37785;SDS011;23625;48.784;9.336;2024-03-29T10:19:42;6.93;;;3.45;;
37785;SDS011;23625;48.784;9.336;2024-03-29T10:22:08;6.43;;;3.65;;
37785;SDS011;23625;48.784;9.336;2024-03-29T10:24:34;7.18;;;3.90;;
37785;SDS011;23625;48.784;9.336;2024-03-29T10:27:01;8.32;;;3.40;;
37785;SDS011;23625;48.784;9.336;2024-03-29T10:29:30;4.20;;;1.58;;
37785;SDS011;23625;48.784;9.336;2024-03-29T10:31:56;5.80;;;2.20;;
37785;SDS011;23625;48.784;9.336;2024-03-29T10:34:22;6.03;;;2.78;;
37785;SDS011;23625;48.784;9.336;2024-03-29T10:36:49;9.43;;;4.07;;
37785;SDS011;23625;48.784;9.336;2024-03-29T10:39:18;6.25;;;3.20;;
37785;SDS011;23625;48.784;9.336;2024-03-29T10:41:44;6.10;;;2.50;;
37785;SDS011;23625;48.784;9.336;2024-03-29T10:44:12;4.35;;;2.50;;
37785;SDS011;23625;48.784;9.336;2024-03-29T10:46:39;3.65;;;2.35;;
37785;SDS011;23625;48.784;9.336;2024-03-29T10:49:06;4.25;;;2.15;;
37785;SDS011;23625;48.784;9.336;2024-03-29T10:51:35;11.80;;;4.32;;
37785;SDS011;23625;48.784;9.336;2024-03-29T10:54:03;5.22;;;3.20;;
37785;SDS011;23625;48.784;9.336;2024-03-29T10:56:30;7.15;;;3.95;;
37785;SDS011;23625;48.784;9.336;2024-03-29T10:59:00;8.07;;;4.53;;
37785;SDS011;23625;48.784;9.336;2024-03-29T11:01:49;8.68;;;3.38;;
37785;SDS011;23625;48.784;9.336;2024-03-29T11:04:22;5.72;;;2.80;;
37785;SDS011;23625;48.784;9.336;2024-03-29T11:06:51;7.13;;;2.70;;
37785;SDS011;23625;48.784;9.336;2024-03-29T11:09:22;4.07;;;2.22;;
37785;SDS011;23625;48.784;9.336;2024-03-29T11:11:54;6.10;;;2.42;;
37785;SDS011;23625;48.784;9.336;2024-03-29T11:14:24;5.80;;;2.90;;
37785;SDS011;23625;48.784;9.336;2024-03-29T11:16:58;4.15;;;2.22;;
37785;SDS011;23625;48.784;9.336;2024-03-29T11:19:24;5.35;;;1.85;;
37785;SDS011;23625;48.784;9.336;2024-03-29T11:21:50;2.83;;;1.52;;
37785;SDS011;23625;48.784;9.336;2024-03-29T11:24:16;5.72;;;1.48;;
37785;SDS011;23625;48.784;9.336;2024-03-29T11:26:44;4.05;;;2.30;;
37785;SDS011;23625;48.784;9.336;2024-03-29T11:29:20;5.95;;;1.73;;
37785;SDS011;23625;48.784;9.336;2024-03-29T11:31:56;7.13;;;1.52;;
37785;SDS011;23625;48.784;9.336;2024-03-29T11:34:22;3.60;;;1.70;;
37785;SDS011;23625;48.784;9.336;2024-03-29T11:36:47;9.25;;;1.50;;
37785;SDS011;23625;48.784;9.336;2024-03-29T11:39:22;3.53;;;1.40;;
37785;SDS011;23625;48.784;9.336;2024-03-29T11:41:48;4.77;;;1.70;;
37785;SDS011;23625;48.784;9.336;2024-03-29T11:44:15;2.60;;;1.40;;
37785;SDS011;23625;48.784;9.336;2024-03-29T11:46:42;2.35;;;1.50;;
37785;SDS011;23625;48.784;9.336;2024-03-29T11:49:09;4.03;;;1.35;;
37785;SDS011;23625;48.784;9.336;2024-03-29T11:51:35;3.45;;;1.50;;
37785;SDS011;23625;48.784;9.336;2024-03-29T11:54:00;3.40;;;1.40;;
37785;SDS011;23625;48.784;9.336;2024-03-29T11:56:27;2.90;;;1.30;;
37785;SDS011;23625;48.784;9.336;2024-03-29T11:58:53;3.00;;;1.08;;
37785;SDS011;23625;48.784;9.336;2024-03-29T12:01:24;2.15;;;1.05;;
37785;SDS011;23625;48.784;9.336;2024-03-29T12:03:50;5.82;;;1.25;;
37785;SDS011;23625;48.784;9.336;2024-03-29T12:06:16;3.45;;;1.10;;
37785;SDS011;23625;48.784;9.336;2024-03-29T12:08:43;2.78;;;1.58;;
37785;SDS011;23625;48.784;9.336;2024-03-29T12:11:09;1.88;;;1.13;;
37785;SDS011;23625;48.784;9.336;2024-03-29T12:13:35;3.13;;;1.30;;
37785;SDS011;23625;48.784;9.336;2024-03-29T12:16:01;3.63;;;1.77;;
37785;SDS011;23625;48.784;9.336;2024-03-29T12:18:28;4.68;;;2.28;;
37785;SDS011;23625;48.784;9.336;2024-03-29T12:20:56;2.88;;;1.40;;
37785;SDS011;23625;48.784;9.336;2024-03-29T12:23:22;1.95;;;0.93;;
37785;SDS011;23625;48.784;9.336;2024-03-29T12:25:49;3.15;;;1.30;;
37785;SDS011;23625;48.784;9.336;2024-03-29T12:28:16;2.13;;;1.20;;
37785;SDS011;23625;48.784;9.336;2024-03-29T12:30:43;4.13;;;1.83;;
37785;SDS011;23625;48.784;9.336;2024-03-29T12:33:16;3.08;;;1.50;;
37785;SDS011;23625;48.784;9.336;2024-03-29T12:35:47;3.58;;;1.58;;
37785;SDS011;23625;48.784;9.336;2024-03-29T12:38:19;5.65;;;1.60;;
37785;SDS011;23625;48.784;9.336;2024-03-29T12:40:46;3.40;;;1.63;;
37785;SDS011;23625;48.784;9.336;2024-03-29T12:43:13;3.05;;;1.02;;
37785;SDS011;23625;48.784;9.336;2024-03-29T12:45:42;5.55;;;1.25;;
37785;SDS011;23625;48.784;9.336;2024-03-29T12:48:11;1.13;;;0.85;;
37785;SDS011;23625;48.784;9.336;2024-03-29T12:50:39;1.90;;;0.90;;
37785;SDS011;23625;48.784;9.336;2024-03-29T12:53:07;4.32;;;1.13;;
37785;SDS011;23625;48.784;9.336;2024-03-29T12:55:33;2.25;;;1.25;;
37785;SDS011;23625;48.784;9.336;2024-03-29T12:58:04;2.53;;;0.82;;
37785;SDS011;23625;48.784;9.336;2024-03-29T13:00:33;1.92;;;0.93;;
37785;SDS011;23625;48.784;9.336;2024-03-29T13:02:59;1.65;;;0.90;;
37785;SDS011;23625;48.784;9.336;2024-03-29T13:05:25;2.00;;;0.80;;
37785;SDS011;23625;48.784;9.336;2024-03-29T13:07:53;2.10;;;1.10;;
37785;SDS011;23625;48.784;9.336;2024-03-29T13:10:18;5.78;;;1.42;;
37785;SDS011;23625;48.784;9.336;2024-03-29T13:12:47;2.72;;;1.33;;
37785;SDS011;23625;48.784;9.336;2024-03-29T13:17:51;1.85;;;0.90;;
37785;SDS011;23625;48.784;9.336;2024-03-29T13:20:18;1.50;;;0.90;;
37785;SDS011;23625;48.784;9.336;2024-03-29T13:22:44;0.95;;;0.75;;
37785;SDS011;23625;48.784;9.336;2024-03-29T13:25:17;1.88;;;0.90;;
37785;SDS011;23625;48.784;9.336;2024-03-29T13:27:44;1.83;;;0.90;;
37785;SDS011;23625;48.784;9.336;2024-03-29T13:30:23;2.38;;;1.00;;
37785;SDS011;23625;48.784;9.336;2024-03-29T13:32:50;1.70;;;0.80;;
37785;SDS011;23625;48.784;9.336;2024-03-29T13:35:16;2.08;;;0.95;;
37785;SDS011;23625;48.784;9.336;2024-03-29T13:37:46;2.20;;;1.00;;
37785;SDS011;23625;48.784;9.336;2024-03-29T13:40:12;1.65;;;1.00;;
37785;SDS011;23625;48.784;9.336;2024-03-29T13:42:39;3.40;;;1.08;;
37785;SDS011;23625;48.784;9.336;2024-03-29T13:45:06;3.42;;;1.02;;
37785;SDS011;23625;48.784;9.336;2024-03-29T13:47:33;1.98;;;1.08;;
37785;SDS011;23625;48.784;9.336;2024-03-29T13:49:59;1.20;;;0.70;;
37785;SDS011;23625;48.784;9.336;2024-03-29T13:52:25;1.88;;;0.90;;
37785;SDS011;23625;48.784;9.336;2024-03-29T13:54:52;1.10;;;0.77;;
37785;SDS011;23625;48.784;9.336;2024-03-29T13:57:18;1.83;;;1.00;;
37785;SDS011;23625;48.784;9.336;2024-03-29T13:59:45;1.83;;;0.90;;
37785;SDS011;23625;48.784;9.336;2024-03-29T14:02:11;2.97;;;0.98;;
37785;SDS011;23625;48.784;9.336;2024-03-29T14:04:38;1.60;;;1.00;;
37785;SDS011;23625;48.784;9.336;2024-03-29T14:07:04;1.25;;;0.80;;
37785;SDS011;23625;48.784;9.336;2024-03-29T14:09:33;2.50;;;1.48;;
37785;SDS011;23625;48.784;9.336;2024-03-29T14:11:59;6.30;;;1.23;;
37785;SDS011;23625;48.784;9.336;2024-03-29T14:14:25;2.70;;;0.93;;
37785;SDS011;23625;48.784;9.336;2024-03-29T14:16:51;2.03;;;1.10;;
37785;SDS011;23625;48.784;9.336;2024-03-29T14:19:16;1.65;;;1.08;;
37785;SDS011;23625;48.784;9.336;2024-03-29T14:21:42;1.95;;;1.23;;
37785;SDS011;23625;48.784;9.336;2024-03-29T14:24:08;4.82;;;1.10;;
37785;SDS011;23625;48.784;9.336;2024-03-29T14:26:33;4.20;;;1.20;;
37785;SDS011;23625;48.784;9.336;2024-03-29T14:28:59;2.38;;;0.85;;
37785;SDS011;23625;48.784;9.336;2024-03-29T14:31:24;1.05;;;0.88;;
37785;SDS011;23625;48.784;9.336;2024-03-29T14:33:50;2.13;;;1.25;;
37785;SDS011;23625;48.784;9.336;2024-03-29T14:36:15;0.98;;;0.63;;
37785;SDS011;23625;48.784;9.336;2024-03-29T14:38:42;1.35;;;0.70;;
37785;SDS011;23625;48.784;9.336;2024-03-29T14:41:08;2.17;;;0.95;;
37785;SDS011;23625;48.784;9.336;2024-03-29T14:43:34;3.30;;;0.88;;
37785;SDS011;23625;48.784;9.336;2024-03-29T14:46:00;1.45;;;0.70;;
37785;SDS011;23625;48.784;9.336;2024-03-29T14:48:26;2.05;;;0.70;;